< < Back
Terminal Aerodrome Forecast


Current Version              Previous Versions:   1  2  3  4  5  6  7  8  9  

Terminal Aerodrome Forecast

770
FTUS42 KTAE 312300
TAFTLH
TAF
KTLH 312339Z 0100/0124 VRB04KT P6SM SCT250
     FM011800 29005KT P6SM SCT060 SCT250=

Latest METAR

913
SAUS80 KWBC 011100 RRG
MTRTLH
METAR KTLH 011053Z 00000KT 10SM FEW070 SCT250 21/18 A2996 RMK AO2 SLP146
T02060183


USA.gov is the U.S. government's official web portal to all federal, state and local government web resources and services.